createdAt,value
2022-09-30T00:01:29.187Z,8.57
2022-09-30T00:04:30.591Z,6.50
2022-09-30T00:07:31.986Z,5.40
2022-09-30T00:10:33.372Z,5.63
2022-09-30T00:13:38.393Z,4.03
2022-09-30T00:16:39.847Z,4.53
2022-09-30T00:19:41.268Z,6.40
2022-09-30T00:22:42.648Z,4.93
2022-09-30T00:25:44.050Z,7.10
2022-09-30T00:28:49.026Z,7.47
2022-09-30T00:31:50.426Z,4.50
2022-09-30T00:34:52.023Z,7.30
2022-09-30T00:37:55.092Z,6.93
2022-09-30T00:40:56.895Z,6.77
2022-09-30T00:43:58.545Z,6.47
2022-09-30T00:46:59.981Z,5.13
2022-09-30T00:50:12.149Z,6.63
2022-09-30T00:53:18.915Z,4.93
2022-09-30T00:56:24.757Z,3.73
2022-09-30T00:59:31.252Z,5.50
2022-09-30T01:02:33.070Z,4.43
2022-09-30T01:05:36.099Z,7.67
2022-09-30T01:08:40.392Z,7.37
2022-09-30T01:11:41.794Z,6.63
2022-09-30T01:14:48.424Z,6.40
2022-09-30T01:18:18.933Z,8.30
2022-09-30T01:21:38.512Z,7.37
2022-09-30T01:25:09.614Z,6.57
2022-09-30T01:28:32.210Z,5.40
2022-09-30T01:32:03.287Z,6.90
2022-09-30T01:35:30.168Z,6.90
2022-09-30T01:39:02.403Z,5.30
2022-09-30T01:42:31.513Z,6.90
2022-09-30T01:45:44.873Z,4.10
2022-09-30T01:48:59.055Z,4.80
2022-09-30T01:52:03.137Z,7.77
2022-09-30T01:55:17.360Z,7.73
2022-09-30T01:58:36.816Z,4.80
2022-09-30T02:01:44.032Z,4.30
2022-09-30T02:04:52.156Z,4.03
2022-09-30T02:08:00.936Z,8.87
2022-09-30T02:11:12.024Z,5.10
2022-09-30T02:14:25.765Z,5.07
2022-09-30T02:17:33.011Z,9.87
2022-09-30T02:20:40.708Z,5.73
2022-09-30T02:23:46.914Z,5.83
2022-09-30T02:26:49.590Z,5.90
2022-09-30T02:29:57.098Z,5.63
2022-09-30T02:33:10.738Z,4.37
2022-09-30T02:36:21.234Z,4.47
2022-09-30T02:39:27.837Z,7.97
2022-09-30T02:42:30.978Z,4.13
2022-09-30T02:45:46.139Z,7.33
2022-09-30T02:49:13.794Z,5.97
2022-09-30T02:52:41.967Z,7.60
2022-09-30T02:56:05.318Z,7.73
2022-09-30T02:59:06.766Z,3.77
2022-09-30T03:02:08.250Z,4.60
2022-09-30T03:05:10.707Z,3.93
2022-09-30T03:08:12.156Z,6.37
2022-09-30T03:11:34.788Z,6.10
2022-09-30T03:14:55.940Z,4.30
2022-09-30T03:18:22.512Z,7.77
2022-09-30T03:21:37.495Z,6.00
2022-09-30T03:24:41.975Z,3.53
2022-09-30T03:27:51.796Z,3.50
2022-09-30T03:31:12.153Z,7.97
2022-09-30T03:34:20.418Z,6.73
2022-09-30T03:37:46.612Z,4.10
2022-09-30T03:41:06.560Z,5.70
2022-09-30T03:44:17.205Z,4.10
2022-09-30T03:47:21.468Z,4.77
2022-09-30T03:50:25.710Z,5.67
2022-09-30T03:53:28.481Z,5.70
2022-09-30T03:56:31.582Z,3.73
2022-09-30T03:59:33.003Z,7.33
2022-09-30T04:02:36.658Z,4.70
2022-09-30T04:05:38.059Z,9.40
2022-09-30T04:08:39.510Z,5.63
2022-09-30T04:11:41.282Z,6.97
2022-09-30T04:14:42.738Z,3.77
2022-09-30T04:17:44.118Z,5.80
2022-09-30T04:20:45.526Z,7.70
2022-09-30T04:23:47.012Z,6.67
2022-09-30T04:26:48.866Z,5.63
2022-09-30T04:29:50.275Z,4.83
2022-09-30T04:32:51.664Z,5.33
2022-09-30T04:35:57.073Z,3.27
2022-09-30T04:38:58.505Z,4.13
2022-09-30T04:41:59.882Z,6.23
2022-09-30T04:45:01.733Z,3.33
2022-09-30T04:48:03.157Z,5.00
2022-09-30T04:51:04.683Z,3.57
2022-09-30T04:54:06.066Z,3.17
2022-09-30T04:57:07.436Z,5.13
2022-09-30T05:00:10.012Z,3.47
2022-09-30T05:03:11.442Z,4.47
2022-09-30T05:06:13.352Z,3.37
2022-09-30T05:09:14.843Z,7.10
2022-09-30T05:12:16.284Z,3.87
2022-09-30T05:15:17.884Z,5.70
2022-09-30T05:18:20.509Z,5.23
2022-09-30T05:21:22.049Z,4.63
2022-09-30T05:24:23.528Z,5.97
2022-09-30T05:27:25.035Z,3.53
2022-09-30T05:30:26.469Z,3.00
2022-09-30T05:33:29.430Z,3.60
2022-09-30T05:36:30.873Z,3.70
2022-09-30T05:39:32.466Z,4.37
2022-09-30T05:42:36.170Z,7.73
2022-09-30T05:45:38.408Z,8.10
2022-09-30T05:48:40.406Z,9.47
2022-09-30T05:51:42.104Z,4.60
2022-09-30T05:54:43.472Z,7.90
2022-09-30T05:57:48.942Z,5.40
2022-09-30T06:00:50.640Z,5.00
2022-09-30T06:03:52.069Z,6.50
2022-09-30T06:06:53.525Z,6.67
2022-09-30T06:09:55.040Z,11.87
2022-09-30T06:12:59.028Z,10.13
2022-09-30T06:16:02.027Z,6.97
2022-09-30T06:19:03.525Z,9.93
2022-09-30T06:22:04.903Z,5.17
2022-09-30T06:25:07.139Z,5.73
2022-09-30T06:28:08.522Z,6.23
2022-09-30T06:31:11.193Z,4.87
2022-09-30T06:34:13.662Z,5.53
2022-09-30T06:37:15.974Z,6.30
2022-09-30T06:40:18.062Z,5.83
2022-09-30T06:43:20.800Z,3.30
2022-09-30T06:46:27.479Z,3.07
2022-09-30T06:49:44.699Z,3.10
2022-09-30T06:52:49.169Z,4.33
2022-09-30T06:55:56.323Z,5.87
2022-09-30T06:58:57.740Z,8.37
2022-09-30T07:01:59.193Z,7.63
2022-09-30T07:05:03.509Z,9.90
2022-09-30T07:08:05.802Z,7.73
2022-09-30T07:11:14.521Z,10.67
2022-09-30T07:14:15.939Z,15.87
2022-09-30T07:17:17.392Z,14.20
2022-09-30T07:20:19.199Z,14.60
2022-09-30T07:23:26.406Z,15.50
2022-09-30T07:26:28.836Z,14.77
2022-09-30T07:29:40.385Z,22.07
2022-09-30T07:32:53.425Z,19.83
2022-09-30T07:36:00.383Z,17.43
2022-09-30T07:39:07.085Z,16.33
2022-09-30T07:42:08.765Z,16.90
2022-09-30T07:45:10.880Z,20.03
2022-09-30T07:48:32.237Z,21.27
2022-09-30T07:51:40.065Z,22.77
2022-09-30T07:54:46.660Z,18.43
2022-09-30T07:57:51.114Z,20.47
2022-09-30T08:00:52.511Z,19.07
2022-09-30T08:03:56.546Z,24.03
2022-09-30T08:07:00.284Z,22.00
2022-09-30T08:10:01.686Z,21.87
2022-09-30T08:13:05.702Z,20.17
2022-09-30T08:16:08.544Z,27.97
2022-09-30T08:19:16.131Z,22.77
2022-09-30T08:22:17.623Z,20.70
2022-09-30T08:25:19.016Z,22.77
2022-09-30T08:28:20.388Z,18.30
2022-09-30T08:31:23.800Z,20.27
2022-09-30T08:34:25.539Z,21.53
2022-09-30T08:37:27.039Z,20.40
2022-09-30T08:40:31.808Z,17.90
2022-09-30T08:43:45.776Z,17.60
2022-09-30T08:46:58.627Z,17.63
2022-09-30T08:50:06.267Z,21.60
2022-09-30T08:53:11.946Z,18.17
2022-09-30T08:56:24.419Z,19.10
2022-09-30T08:59:46.440Z,18.23
2022-09-30T09:02:59.397Z,15.57
2022-09-30T09:06:29.618Z,19.13
2022-09-30T09:09:48.078Z,17.80
2022-09-30T09:12:49.395Z,21.93
2022-09-30T09:16:30.102Z,20.17
2022-09-30T09:19:42.166Z,17.23
2022-09-30T09:22:46.234Z,20.27
2022-09-30T09:25:50.794Z,19.97
2022-09-30T09:29:21.734Z,20.70
2022-09-30T09:32:26.216Z,16.73
2022-09-30T09:35:40.212Z,16.27
2022-09-30T09:38:41.667Z,15.07
2022-09-30T09:42:23.953Z,11.93
2022-09-30T09:45:36.221Z,11.50
2022-09-30T09:48:38.022Z,13.30
2022-09-30T09:51:53.277Z,10.80
2022-09-30T09:54:58.473Z,13.67
2022-09-30T09:58:14.883Z,11.10
2022-09-30T10:01:42.528Z,10.33
2022-09-30T10:04:50.970Z,9.20
2022-09-30T10:08:12.520Z,8.97
2022-09-30T10:11:24.552Z,11.43
2022-09-30T10:14:25.998Z,7.97
2022-09-30T10:17:33.801Z,7.63
2022-09-30T10:20:36.948Z,8.23
2022-09-30T10:23:40.224Z,8.33
2022-09-30T10:26:48.528Z,8.97
2022-09-30T10:29:50.840Z,9.67
2022-09-30T10:32:52.621Z,8.97
2022-09-30T10:36:04.014Z,7.47
2022-09-30T10:39:26.882Z,10.00
2022-09-30T10:42:31.623Z,8.73
2022-09-30T10:45:38.561Z,7.60
2022-09-30T10:48:41.211Z,7.20
2022-09-30T10:51:45.957Z,8.07
2022-09-30T10:54:53.855Z,7.60
2022-09-30T10:58:01.087Z,7.23
2022-09-30T11:01:15.165Z,8.43
2022-09-30T11:04:28.057Z,9.50
2022-09-30T11:07:41.011Z,8.37
2022-09-30T11:10:47.117Z,7.60
2022-09-30T11:13:56.896Z,8.20
2022-09-30T11:17:18.105Z,7.97
2022-09-30T11:20:29.816Z,7.67
2022-09-30T11:23:38.438Z,8.47
2022-09-30T11:27:03.733Z,7.73
2022-09-30T11:30:31.473Z,7.43
2022-09-30T11:33:53.335Z,7.70
2022-09-30T11:36:54.710Z,6.90
2022-09-30T11:40:38.204Z,8.60
2022-09-30T11:44:01.401Z,6.17
2022-09-30T11:47:30.353Z,7.53
2022-09-30T11:50:56.827Z,7.97
2022-09-30T11:54:23.408Z,6.67
2022-09-30T11:57:35.944Z,6.70
2022-09-30T12:00:45.464Z,8.53
2022-09-30T12:04:03.116Z,5.60
2022-09-30T12:07:15.117Z,6.43
2022-09-30T12:10:21.522Z,5.33
2022-09-30T12:13:37.090Z,5.63
2022-09-30T12:16:39.569Z,5.53
2022-09-30T12:19:47.389Z,4.83
2022-09-30T12:22:51.570Z,7.13
2022-09-30T12:25:59.238Z,7.90
2022-09-30T12:29:26.949Z,7.00
2022-09-30T12:33:05.907Z,7.43
2022-09-30T12:36:30.469Z,6.03
2022-09-30T12:39:44.358Z,6.70
2022-09-30T12:43:23.720Z,5.70
2022-09-30T12:46:59.799Z,5.57
2022-09-30T12:50:06.067Z,5.17
2022-09-30T12:53:23.992Z,7.43
2022-09-30T12:56:28.830Z,5.83
2022-09-30T12:59:34.445Z,7.37
2022-09-30T13:02:42.404Z,7.10
2022-09-30T13:05:52.741Z,7.13
2022-09-30T13:08:57.125Z,5.73
2022-09-30T13:11:58.451Z,5.03
2022-09-30T13:15:42.191Z,6.83
2022-09-30T13:18:44.997Z,8.73
2022-09-30T13:21:46.964Z,5.07
2022-09-30T13:24:57.726Z,5.60
2022-09-30T13:28:14.365Z,5.03
2022-09-30T13:31:19.713Z,5.00
2022-09-30T13:34:32.825Z,6.77
2022-09-30T13:37:37.957Z,6.60
2022-09-30T13:41:02.691Z,6.73
2022-09-30T13:44:23.917Z,6.10
2022-09-30T13:47:35.121Z,4.67
2022-09-30T13:50:52.761Z,6.73
2022-09-30T13:53:58.373Z,7.77
2022-09-30T13:57:04.973Z,4.47
2022-09-30T14:00:12.848Z,4.87
2022-09-30T14:04:06.339Z,4.27
2022-09-30T14:07:26.269Z,3.53
2022-09-30T14:10:57.124Z,4.40
2022-09-30T14:14:13.334Z,5.87
2022-09-30T14:17:36.789Z,4.13
2022-09-30T14:21:01.881Z,4.40
2022-09-30T14:24:10.801Z,7.20
2022-09-30T14:27:23.637Z,3.63
2022-09-30T14:30:26.542Z,5.30
2022-09-30T14:33:28.373Z,4.23
2022-09-30T14:36:30.122Z,3.37
2022-09-30T14:39:32.858Z,6.00
2022-09-30T14:42:38.672Z,2.90
2022-09-30T14:45:44.643Z,2.83
2022-09-30T14:48:48.420Z,3.50
2022-09-30T14:51:50.029Z,3.10
2022-09-30T14:54:51.458Z,3.60
2022-09-30T14:57:55.729Z,3.13
2022-09-30T15:00:58.020Z,3.07
2022-09-30T15:04:04.858Z,3.77
2022-09-30T15:07:11.860Z,3.23
2022-09-30T15:10:22.965Z,3.90
2022-09-30T15:13:28.120Z,3.63
2022-09-30T15:16:31.639Z,3.87
2022-09-30T15:19:42.077Z,3.40
2022-09-30T15:22:43.982Z,3.17
2022-09-30T15:25:45.943Z,4.27
2022-09-30T15:28:47.918Z,2.27
2022-09-30T15:31:58.309Z,2.53
2022-09-30T15:35:08.321Z,2.67
2022-09-30T15:38:20.962Z,1.80
2022-09-30T15:41:22.461Z,2.90
2022-09-30T15:49:38.146Z,2.43
2022-09-30T15:52:40.379Z,1.90
2022-09-30T15:55:49.949Z,3.57
2022-09-30T15:58:55.738Z,5.60
2022-09-30T16:01:57.906Z,3.70
2022-09-30T16:05:05.251Z,3.40
2022-09-30T16:08:10.390Z,2.13
2022-09-30T16:11:31.066Z,3.07
2022-09-30T16:14:40.058Z,2.60
2022-09-30T16:17:49.896Z,3.30
2022-09-30T16:21:03.148Z,2.87
2022-09-30T16:24:04.721Z,2.87
2022-09-30T16:27:29.800Z,3.13
2022-09-30T16:30:32.189Z,3.47
2022-09-30T16:33:38.099Z,3.37
2022-09-30T16:36:39.510Z,8.43
2022-09-30T16:39:41.100Z,3.57
2022-09-30T16:42:42.682Z,4.63
2022-09-30T16:45:44.244Z,4.17
2022-09-30T16:48:45.656Z,2.27
2022-09-30T16:51:47.095Z,3.07
2022-09-30T16:54:48.558Z,5.63
2022-09-30T16:57:50.255Z,2.90
2022-09-30T17:00:52.276Z,5.40
2022-09-30T17:03:55.827Z,3.53
2022-09-30T17:06:58.234Z,6.93
2022-09-30T17:09:59.633Z,10.10
2022-09-30T17:13:02.204Z,5.20
2022-09-30T17:16:04.304Z,5.60
2022-09-30T17:19:05.756Z,4.20
2022-09-30T17:22:07.136Z,5.07
2022-09-30T17:25:09.743Z,3.80
2022-09-30T17:28:13.263Z,4.70
2022-09-30T17:31:15.018Z,3.27
2022-09-30T17:34:16.632Z,5.47
2022-09-30T17:37:18.857Z,5.07
2022-09-30T17:40:39.209Z,4.33
2022-09-30T17:43:43.076Z,5.73
2022-09-30T17:46:46.682Z,4.17
2022-09-30T17:49:48.239Z,6.60
2022-09-30T17:52:49.672Z,4.80
2022-09-30T17:56:02.157Z,4.27
2022-09-30T17:59:03.593Z,4.97
2022-09-30T18:02:05.406Z,3.73
2022-09-30T18:05:07.415Z,4.53
2022-09-30T18:08:11.993Z,4.50
2022-09-30T18:11:19.844Z,9.87
2022-09-30T18:14:21.230Z,7.30
2022-09-30T18:17:23.622Z,5.10
2022-09-30T18:20:25.697Z,6.10
2022-09-30T18:23:27.223Z,7.40
2022-09-30T18:26:33.391Z,5.10
2022-09-30T18:29:37.230Z,7.30
2022-09-30T18:32:39.616Z,3.83
2022-09-30T18:35:41.998Z,8.93
2022-09-30T18:38:43.812Z,6.57
2022-09-30T18:41:45.990Z,6.50
2022-09-30T18:44:48.719Z,6.43
2022-09-30T18:47:55.396Z,5.30
2022-09-30T18:51:04.931Z,8.13
2022-09-30T18:54:06.543Z,4.97
2022-09-30T18:57:08.106Z,5.23
2022-09-30T19:00:11.137Z,5.90
2022-09-30T19:03:16.029Z,6.20
2022-09-30T19:06:18.816Z,9.10
2022-09-30T19:09:20.378Z,8.63
2022-09-30T19:12:22.370Z,10.57
2022-09-30T19:15:23.921Z,8.90
2022-09-30T19:18:25.302Z,13.53
2022-09-30T19:21:27.173Z,8.77
2022-09-30T19:24:28.714Z,10.67
2022-09-30T19:27:30.255Z,8.33
2022-09-30T19:30:31.794Z,12.27
2022-09-30T19:33:35.199Z,12.33
2022-09-30T19:36:50.319Z,10.30
2022-09-30T19:39:53.181Z,9.57
2022-09-30T19:42:54.566Z,9.73
2022-09-30T19:46:01.375Z,12.60
2022-09-30T19:49:02.846Z,11.63
2022-09-30T19:52:12.131Z,13.47
2022-09-30T19:55:17.110Z,12.97
2022-09-30T19:58:18.719Z,11.77
2022-09-30T20:01:22.305Z,11.63
2022-09-30T20:04:24.601Z,9.27
2022-09-30T20:07:28.210Z,10.47
2022-09-30T20:10:29.591Z,8.80
2022-09-30T20:13:31.242Z,9.73
2022-09-30T20:16:32.729Z,14.47
2022-09-30T20:19:34.190Z,9.93
2022-09-30T20:22:35.780Z,8.40
2022-09-30T20:25:38.269Z,10.33
2022-09-30T20:28:40.175Z,8.43
2022-09-30T20:31:42.889Z,10.97
2022-09-30T20:34:45.389Z,8.57
2022-09-30T20:37:46.851Z,11.93
2022-09-30T20:40:56.484Z,10.63
2022-09-30T20:43:58.884Z,12.40
2022-09-30T20:47:00.913Z,12.30
2022-09-30T20:50:02.307Z,9.67
2022-09-30T20:53:07.338Z,11.17
2022-09-30T20:56:11.772Z,11.93
2022-09-30T20:59:13.688Z,12.57
2022-09-30T21:02:15.332Z,12.20
2022-09-30T21:05:16.741Z,14.73
2022-09-30T21:08:18.378Z,12.80
2022-09-30T21:11:21.274Z,12.23
2022-09-30T21:14:22.657Z,16.47
2022-09-30T21:17:24.093Z,10.40
2022-09-30T21:20:25.517Z,14.63
2022-09-30T21:23:31.311Z,19.43
2022-09-30T21:26:32.696Z,23.60
2022-09-30T21:29:34.101Z,21.40
2022-09-30T21:32:35.499Z,20.57
2022-09-30T21:35:36.880Z,13.77
2022-09-30T21:38:38.574Z,15.70
2022-09-30T21:41:40.639Z,19.07
2022-09-30T21:44:42.245Z,16.23
2022-09-30T21:47:43.614Z,16.47
2022-09-30T21:50:45.006Z,14.30
2022-09-30T21:53:46.774Z,15.00
2022-09-30T21:56:48.540Z,14.23
2022-09-30T21:59:50.638Z,19.73
2022-09-30T22:02:52.058Z,17.53
2022-09-30T22:05:54.575Z,14.37
2022-09-30T22:08:57.070Z,15.00
2022-09-30T22:11:58.652Z,15.80
2022-09-30T22:15:00.046Z,11.70
2022-09-30T22:18:01.505Z,9.70
2022-09-30T22:21:09.162Z,9.23
2022-09-30T22:24:10.623Z,10.37
2022-09-30T22:27:14.080Z,8.70
2022-09-30T22:30:15.628Z,9.03
2022-09-30T22:33:35.700Z,13.30
2022-09-30T22:36:56.561Z,8.93
2022-09-30T22:40:00.861Z,10.47
2022-09-30T22:43:04.205Z,8.53
2022-09-30T22:46:08.023Z,10.03
2022-09-30T22:49:10.262Z,7.97
2022-09-30T22:52:12.830Z,9.77
2022-09-30T22:55:15.006Z,9.93
2022-09-30T22:58:16.448Z,8.77
2022-09-30T23:01:17.844Z,8.47
2022-09-30T23:04:19.510Z,10.23
2022-09-30T23:07:20.948Z,8.53
2022-09-30T23:10:22.341Z,9.43
2022-09-30T23:13:23.744Z,10.57
2022-09-30T23:16:25.230Z,8.90
2022-09-30T23:19:26.663Z,8.70
2022-09-30T23:22:28.058Z,11.13
2022-09-30T23:25:29.436Z,9.00
2022-09-30T23:28:31.800Z,10.47
2022-09-30T23:31:33.904Z,7.93
2022-09-30T23:34:35.516Z,7.53
2022-09-30T23:37:36.897Z,7.73
2022-09-30T23:40:48.583Z,9.73
2022-09-30T23:43:49.954Z,11.57
2022-09-30T23:47:09.945Z,8.60
2022-09-30T23:50:12.022Z,9.87
2022-09-30T23:53:13.433Z,10.10
2022-09-30T23:56:17.586Z,6.53
2022-09-30T23:59:19.263Z,6.07
